Time;durP1;ratioP1;P1;durP2;ratioP2;P2;SDS_P1;SDS_P2;PMS_P1;PMS_P2;Temp;Humidity;BMP_temperature;BMP_pressure;BME280_temperature;BME280_humidity;BME280_pressure;Samples;Min_cycle;Max_cycle;Signal;HPM_P1;HPM_P2
2021/12/06 00:01:24;;;;;;;43.75;16.67;;;;;;;2.33;100.00;101354.63;5013218;28;20069;-71
2021/12/06 00:03:57;;;;;;;41.20;17.08;;;;;;;2.37;100.00;101363.34;5008973;28;20026;-73
2021/12/06 00:06:24;;;;;;;43.80;16.90;;;;;;;2.43;100.00;101361.56;5014550;28;20037;-73
2021/12/06 00:08:50;;;;;;;45.30;17.25;;;;;;;2.48;100.00;101360.69;5014296;28;20018;-73
2021/12/06 00:11:15;;;;;;;45.00;16.95;;;;;;;2.51;100.00;101364.16;5014320;28;20034;-72
2021/12/06 00:13:45;;;;;;;47.83;18.13;;;;;;;2.55;100.00;101365.88;5012410;28;20030;-73
2021/12/06 00:16:17;;;;;;;47.00;18.70;;;;;;;2.58;100.00;101367.63;5014418;28;20026;-74
2021/12/06 00:18:43;;;;;;;;;;;;;;;2.61;100.00;101365.00;5014739;28;20443;-71
2021/12/06 00:21:10;;;;;;;49.60;17.33;;;;;;;2.65;100.00;101376.31;5014273;28;20009;-73
2021/12/06 00:23:36;;;;;;;46.85;18.25;;;;;;;2.66;100.00;101373.72;5012370;28;20021;-73
2021/12/06 00:26:01;;;;;;;52.33;19.20;;;;;;;2.70;100.00;101372.81;5014028;28;20026;-72
2021/12/06 00:28:27;;;;;;;46.03;17.02;;;;;;;2.72;100.00;101378.91;5014029;28;20360;-73
2021/12/06 00:30:54;;;;;;;47.28;18.30;;;;;;;2.73;100.00;101377.16;5014075;28;20032;-73
2021/12/06 00:33:19;;;;;;;52.08;19.05;;;;;;;2.74;100.00;101378.91;5012296;28;20038;-73
2021/12/06 00:35:45;;;;;;;48.20;19.42;;;;;;;2.75;100.00;101375.41;4995970;28;20038;-73
2021/12/06 00:38:11;;;;;;;51.60;18.88;;;;;;;2.77;100.00;101384.97;5013750;28;20453;-73
2021/12/06 00:40:42;;;;;;;57.35;20.08;;;;;;;2.79;100.00;101387.63;5013579;28;20064;-73
2021/12/06 00:43:07;;;;;;;49.90;20.45;;;;;;;2.81;100.00;101385.84;5013706;28;20022;-73
2021/12/06 00:45:34;;;;;;;48.78;19.85;;;;;;;2.79;100.00;101383.25;5011622;28;20501;-70
2021/12/06 00:48:00;;;;;;;53.00;19.92;;;;;;;2.81;100.00;101393.69;5013491;28;20108;-70
2021/12/06 00:50:28;;;;;;;56.47;19.67;;;;;;;2.81;100.00;101393.69;5013835;28;20493;-73
2021/12/06 00:52:54;;;;;;;51.00;19.80;;;;;;;2.82;100.00;101405.03;5014099;28;20030;-73
2021/12/06 00:55:21;;;;;;;49.05;20.05;;;;;;;2.83;100.00;101409.41;5011817;28;20088;-74
2021/12/06 00:57:49;;;;;;;47.05;18.75;;;;;;;2.85;100.00;101410.25;5013066;28;20030;-74
2021/12/06 01:00:21;;;;;;;51.22;21.35;;;;;;;2.85;100.00;101415.47;5013595;28;20034;-74
2021/12/06 01:02:47;;;;;;;48.85;20.63;;;;;;;2.86;100.00;101415.47;5013359;28;20509;-74
2021/12/06 01:05:12;;;;;;;49.13;20.42;;;;;;;2.88;100.00;101418.97;5012001;28;20034;-74
2021/12/06 01:07:38;;;;;;;48.50;19.90;;;;;;;2.88;100.00;101434.66;5012916;28;20034;-73
2021/12/06 01:10:06;;;;;;;55.08;20.50;;;;;;;2.88;100.00;101439.03;5013187;28;20026;-73
2021/12/06 01:12:32;;;;;;;52.45;19.95;;;;;;;2.87;100.00;101440.75;5012497;28;20021;-74
2021/12/06 01:14:57;;;;;;;51.10;20.73;;;;;;;2.87;100.00;101445.13;5013288;28;20022;-74
2021/12/06 01:17:23;;;;;;;52.30;20.70;;;;;;;2.88;100.00;101449.50;5004265;28;20096;-73
2021/12/06 01:19:49;;;;;;;47.80;20.77;;;;;;;2.89;100.00;101446.88;5013255;28;20033;-74
2021/12/06 01:22:38;;;;;;;50.90;20.75;;;;;;;2.90;100.00;101445.09;4994995;28;20041;-73
2021/12/06 01:25:15;;;;;;;52.30;20.85;;;;;;;2.92;100.00;101456.44;5012950;28;20108;-73
2021/12/06 01:28:02;;;;;;;48.25;20.17;;;;;;;2.91;100.00;101457.31;5010032;28;20041;-72
2021/12/06 01:30:53;;;;;;;51.72;20.92;;;;;;;2.91;100.00;101449.47;5012782;28;20030;-73
2021/12/06 01:41:16;;;;;;;49.50;20.77;;;;;;;2.92;100.00;101456.44;5012999;28;20048;-73
2021/12/06 01:44:09;;;;;;;52.22;21.42;;;;;;;2.90;100.00;101464.31;5012774;28;20359;-73
2021/12/06 01:46:37;;;;;;;48.45;21.70;;;;;;;2.90;100.00;101461.69;5013052;28;20040;-73
2021/12/06 01:49:05;;;;;;;50.92;21.65;;;;;;;2.90;100.00;101459.06;5011150;28;20084;-72
2021/12/06 01:51:31;;;;;;;48.80;20.33;;;;;;;2.91;100.00;101468.63;4993207;28;20042;-69
2021/12/06 01:53:56;;;;;;;45.00;19.42;;;;;;;2.91;100.00;101465.16;4993252;28;20076;-74
2021/12/06 01:56:22;;;;;;;44.55;19.98;;;;;;;2.97;100.00;101464.25;4992703;28;20034;-71
2021/12/06 01:58:47;;;;;;;47.78;20.52;;;;;;;2.95;100.00;101464.28;4994140;28;20387;-75
2021/12/06 02:01:13;;;;;;;47.33;20.17;;;;;;;2.97;100.00;101467.78;4997473;28;20033;-74
2021/12/06 02:03:39;;;;;;;49.55;21.05;;;;;;;2.93;100.00;101460.81;4975606;28;20383;-74
2021/12/06 02:06:05;;;;;;;48.17;20.90;;;;;;;2.92;100.00;101464.31;4993183;28;20030;-74
2021/12/06 02:08:30;;;;;;;50.22;21.77;;;;;;;2.91;100.00;101458.19;4993147;28;20030;-74
2021/12/06 02:11:01;;;;;;;54.78;21.45;;;;;;;2.89;100.00;101459.94;4999389;28;20034;-74
2021/12/06 02:13:30;;;;;;;50.15;21.95;;;;;;;2.89;100.00;101462.56;5012592;28;20026;-74
2021/12/06 02:15:56;;;;;;;49.65;20.52;;;;;;;2.88;100.00;101457.34;5012840;28;20034;-73
2021/12/06 02:21:02;;;;;;;48.47;19.80;;;;;;;2.87;100.00;101452.97;5011078;28;20041;-73
2021/12/06 02:23:28;;;;;;;48.40;20.55;;;;;;;2.87;100.00;101456.44;4993397;28;20161;-73
2021/12/06 02:25:53;;;;;;;46.42;20.33;;;;;;;2.84;100.00;101445.13;4996455;28;20026;-73
2021/12/06 02:28:19;;;;;;;43.80;19.58;;;;;;;2.85;100.00;101455.59;5001294;28;20021;-73
2021/12/06 02:30:44;;;;;;;48.75;20.48;;;;;;;2.87;100.00;101459.06;5011191;28;20030;-73
2021/12/06 02:33:09;;;;;;;46.42;20.52;;;;;;;2.86;100.00;101452.09;5005359;28;20026;-73
2021/12/06 02:35:35;;;;;;;45.72;20.33;;;;;;;2.81;100.00;101456.47;5016252;28;20034;-73
2021/12/06 02:38:02;;;;;;;47.20;19.58;;;;;;;2.72;100.00;101454.75;5016087;28;20037;-73
2021/12/06 02:40:32;;;;;;;41.83;19.48;;;;;;;2.67;100.00;101445.19;5015827;28;20026;-73
2021/12/06 02:43:01;;;;;;;43.33;18.88;;;;;;;2.66;100.00;101440.81;5014281;28;20030;-72
2021/12/06 02:45:28;;;;;;;47.42;19.70;;;;;;;2.59;100.00;101440.81;5015299;28;21360;-75
2021/12/06 02:47:56;;;;;;;45.97;20.08;;;;;;;2.54;100.00;101445.19;5012236;28;20501;-72
2021/12/06 02:50:26;;;;;;;42.15;19.65;;;;;;;2.48;100.00;101447.81;5010367;28;20041;-73
2021/12/06 02:52:52;;;;;;;52.55;20.98;;;;;;;2.46;100.00;101449.56;4997444;28;20038;-73
2021/12/06 02:55:31;;;;;;;50.47;20.42;;;;;;;2.41;100.00;101448.72;4996237;28;20394;-73
2021/12/06 02:58:18;;;;;;;47.13;19.73;;;;;;;2.32;100.00;101451.34;4996038;28;20030;-72
2021/12/06 03:00:51;;;;;;;46.95;18.88;;;;;;;2.24;100.00;101454.81;5004724;28;20033;-71
2021/12/06 03:03:18;;;;;;;49.40;19.52;;;;;;;2.18;100.00;101448.72;4998546;28;20030;-73
2021/12/06 03:05:44;;;;;;;43.20;18.63;;;;;;;2.07;100.00;101444.38;5005273;28;20112;-72
2021/12/06 03:08:09;;;;;;;46.47;19.42;;;;;;;1.98;100.00;101439.13;5015105;28;20474;-73
2021/12/06 03:10:35;;;;;;;43.22;18.70;;;;;;;1.91;100.00;101448.72;5015757;28;20369;-72
2021/12/06 03:13:01;;;;;;;42.58;18.27;;;;;;;1.84;100.00;101452.19;5005721;28;20031;-72
2021/12/06 03:15:27;;;;;;;45.92;19.10;;;;;;;1.75;100.00;101447.84;4996043;28;20049;-72
2021/12/06 03:17:52;;;;;;;42.55;17.75;;;;;;;1.68;100.00;101463.50;4994255;28;20551;-72
2021/12/06 03:20:17;;;;;;;49.88;18.92;;;;;;;1.65;100.00;101466.97;5015199;28;20066;-72
2021/12/06 03:22:44;;;;;;;51.78;19.63;;;;;;;1.67;100.00;101465.22;5013732;28;20105;-72
2021/12/06 03:25:13;;;;;;;52.55;20.48;;;;;;;1.67;100.00;101467.81;5015274;28;20473;-72
2021/12/06 03:27:38;;;;;;;51.92;20.98;;;;;;;1.70;100.00;101467.84;5015328;28;20023;-73
2021/12/06 03:30:08;;;;;;;53.47;20.73;;;;;;;1.74;100.00;101466.97;4997281;28;20041;-72
2021/12/06 03:32:33;;;;;;;57.08;21.13;;;;;;;1.73;100.00;101469.59;5015141;28;20046;-73
2021/12/06 03:34:58;;;;;;;47.03;19.88;;;;;;;1.68;100.00;101474.78;5012849;28;20437;-73
2021/12/06 03:37:24;;;;;;;46.15;19.38;;;;;;;1.62;100.00;101472.16;5014705;28;20030;-72
2021/12/06 03:39:49;;;;;;;43.70;19.08;;;;;;;1.56;100.00;101462.59;5014810;28;20034;-73
2021/12/06 03:42:18;;;;;;;42.67;18.38;;;;;;;1.48;100.00;101461.69;5014957;28;20101;-73
2021/12/06 03:44:43;;;;;;;46.92;18.55;;;;;;;1.39;100.00;101459.91;5008729;28;20022;-73
2021/12/06 03:47:13;;;;;;;48.67;19.17;;;;;;;1.29;100.00;101461.66;5014950;28;20022;-73
2021/12/06 03:49:38;;;;;;;47.58;18.15;;;;;;;1.25;100.00;101462.50;5014303;28;20030;-73
2021/12/06 03:52:05;;;;;;;54.22;20.02;;;;;;;1.24;100.00;101467.69;5014745;28;20053;-72
2021/12/06 03:54:31;;;;;;;50.55;19.77;;;;;;;1.22;100.00;101470.31;5013233;28;20474;-73
2021/12/06 03:56:57;;;;;;;49.30;19.05;;;;;;;1.24;100.00;101485.97;5012862;28;20030;-73
2021/12/06 03:59:24;;;;;;;53.38;21.65;;;;;;;1.26;100.00;101479.88;5004848;28;20034;-73
2021/12/06 04:01:51;;;;;;;52.88;19.90;;;;;;;1.26;100.00;101486.84;5014769;28;20022;-73
2021/12/06 04:04:17;;;;;;;55.25;20.08;;;;;;;1.25;100.00;101490.31;5014716;28;20545;-71
2021/12/06 04:06:43;;;;;;;62.30;20.83;;;;;;;1.25;100.00;101490.31;5013142;28;20073;-73
2021/12/06 04:09:09;;;;;;;62.05;21.88;;;;;;;1.29;100.00;101486.84;5014136;28;20034;-73
2021/12/06 04:11:36;;;;;;;57.88;21.75;;;;;;;1.37;100.00;101476.44;5014176;28;20108;-73
2021/12/06 04:14:03;;;;;;;59.13;21.30;;;;;;;1.40;100.00;101482.53;5012749;28;20029;-73
2021/12/06 04:16:29;;;;;;;58.30;21.13;;;;;;;1.41;100.00;101484.28;5014334;28;20030;-73
2021/12/06 04:18:55;;;;;;;58.63;21.42;;;;;;;1.42;100.00;101485.16;5014252;28;20030;-72
2021/12/06 04:21:22;;;;;;;63.78;22.15;;;;;;;1.44;100.00;101493.88;5013930;28;20117;-73
2021/12/06 04:23:47;;;;;;;57.08;21.52;;;;;;;1.48;100.00;101500.84;5012486;28;20077;-73
2021/12/06 04:26:13;;;;;;;58.28;21.27;;;;;;;1.50;100.00;101504.34;5014226;28;20417;-72
2021/12/06 04:28:43;;;;;;;62.63;21.15;;;;;;;1.52;100.00;101507.81;5014079;28;20025;-72
2021/12/06 04:31:09;;;;;;;61.92;22.35;;;;;;;1.50;100.00;101512.16;5013529;28;20030;-72
2021/12/06 04:33:35;;;;;;;51.80;19.98;;;;;;;1.50;100.00;101512.16;5014059;28;20056;-73
2021/12/06 04:36:01;;;;;;;50.75;19.73;;;;;;;1.47;100.00;101505.19;5012751;28;20022;-71
2021/12/06 04:38:26;;;;;;;50.80;19.50;;;;;;;1.43;100.00;101503.44;5013773;28;20074;-73
2021/12/06 04:40:52;;;;;;;43.85;19.42;;;;;;;1.33;100.00;101499.06;5013837;28;20034;-72
2021/12/06 04:43:18;;;;;;;47.22;19.77;;;;;;;1.27;100.00;101504.25;5013785;28;20375;-73
2021/12/06 04:45:43;;;;;;;50.65;20.60;;;;;;;1.22;100.00;101501.59;5006281;28;20037;-71
2021/12/06 04:48:09;;;;;;;61.75;21.98;;;;;;;1.19;100.00;101485.06;4994043;28;20030;-71
2021/12/06 04:50:35;;;;;;;65.63;23.00;;;;;;;1.18;100.00;101476.38;4994060;28;20026;-73
2021/12/06 04:53:14;;;;;;;63.10;22.08;;;;;;;1.17;100.00;101481.59;4989186;28;20030;-73
2021/12/06 04:55:47;;;;;;;56.03;21.67;;;;;;;1.12;100.00;101478.97;5012524;28;20029;-72
2021/12/06 04:58:17;;;;;;;50.00;19.42;;;;;;;1.07;100.00;101483.28;4993713;28;20035;-73
2021/12/06 05:00:51;;;;;;;49.42;19.73;;;;;;;1.05;100.00;101480.66;4993807;28;20486;-72
2021/12/06 05:03:17;;;;;;;50.08;18.13;;;;;;;0.96;100.00;101475.41;5003597;28;20037;-73
2021/12/06 05:05:49;;;;;;;46.45;18.17;;;;;;;0.85;100.00;101475.34;5013254;28;20030;-71
2021/12/06 05:08:19;;;;;;;44.60;18.33;;;;;;;0.76;100.00;101489.19;5011954;28;20030;-72
2021/12/06 05:10:45;;;;;;;54.83;20.98;;;;;;;0.72;100.00;101483.97;5013505;28;20145;-72
2021/12/06 05:13:10;;;;;;;54.28;21.83;;;;;;;0.68;100.00;101490.88;5012955;28;20077;-73
2021/12/06 05:15:36;;;;;;;50.05;20.77;;;;;;;0.68;100.00;101503.03;5013061;28;20474;-73
2021/12/06 05:18:01;;;;;;;54.95;21.33;;;;;;;0.62;100.00;101494.31;5012137;28;20069;-73
2021/12/06 05:20:27;;;;;;;52.20;20.48;;;;;;;0.58;100.00;101496.91;5012600;28;20029;-73
2021/12/06 05:22:53;;;;;;;55.08;22.02;;;;;;;0.53;100.00;101491.66;5008772;28;20471;-73
2021/12/06 05:25:22;;;;;;;82.22;32.05;;;;;;;0.55;100.00;101495.16;5010053;28;20030;-73
2021/12/06 05:27:49;;;;;;;77.38;28.67;;;;;;;0.70;100.00;101506.53;5008097;28;20665;-71
2021/12/06 05:30:15;;;;;;;88.13;32.58;;;;;;;0.80;100.00;101506.59;5009323;28;20037;-73
2021/12/06 05:32:42;;;;;;;85.35;29.80;;;;;;;0.92;100.00;101513.63;5012978;28;20034;-73
2021/12/06 05:35:09;;;;;;;78.03;28.67;;;;;;;0.99;100.00;101506.72;5012452;28;20026;-73
2021/12/06 05:37:37;;;;;;;79.38;26.85;;;;;;;1.11;100.00;101514.63;5012854;28;20088;-72
2021/12/06 05:40:07;;;;;;;77.97;28.05;;;;;;;1.18;100.00;101515.50;4996849;28;20061;-73
2021/12/06 05:42:32;;;;;;;78.68;28.05;;;;;;;1.22;100.00;101519.88;5001519;28;20033;-73
2021/12/06 05:44:58;;;;;;;87.13;27.25;;;;;;;1.32;100.00;101507.75;5012811;28;20022;-72
2021/12/06 05:47:23;;;;;;;85.45;26.23;;;;;;;1.50;100.00;101503.44;5012077;28;20474;-72
2021/12/06 05:49:48;;;;;;;96.22;27.67;;;;;;;1.64;100.00;101507.84;5003466;28;20080;-73
2021/12/06 05:52:14;;;;;;;106.78;30.58;;;;;;;1.78;100.00;101502.66;4992963;28;20073;-72
2021/12/06 05:54:40;;;;;;;94.90;29.05;;;;;;;1.90;100.00;101508.78;4993108;28;20438;-69
2021/12/06 05:57:09;;;;;;;110.53;29.85;;;;;;;2.00;100.00;101507.94;4999959;28;20113;-72
2021/12/06 05:59:35;;;;;;;101.50;29.60;;;;;;;2.05;100.00;101500.97;5001472;28;20029;-72
2021/12/06 06:02:00;;;;;;;99.97;29.10;;;;;;;2.10;100.00;101503.59;5019188;28;20034;-74
2021/12/06 06:04:26;;;;;;;95.22;30.13;;;;;;;2.10;100.00;101514.91;5017344;28;20355;-73
2021/12/06 06:06:52;;;;;;;93.45;30.00;;;;;;;2.15;100.00;101503.59;5018494;28;20032;-73
2021/12/06 06:09:18;;;;;;;97.57;29.02;;;;;;;2.16;100.00;101514.03;5018443;28;20033;-73
2021/12/06 06:11:43;;;;;;;84.97;28.55;;;;;;;2.16;100.00;101503.59;5011190;28;20042;-73
2021/12/06 06:14:08;;;;;;;92.78;28.15;;;;;;;2.21;100.00;101516.66;5019142;28;20076;-73
2021/12/06 06:16:46;;;;;;;94.53;27.13;;;;;;;2.22;100.00;101508.81;5010782;28;20470;-73
2021/12/06 06:19:11;;;;;;;105.53;29.35;;;;;;;2.22;100.00;101514.03;5014657;28;20022;-73
2021/12/06 06:21:37;;;;;;;79.07;27.45;;;;;;;2.22;100.00;101513.19;5017300;28;20553;-74
2021/12/06 06:24:02;;;;;;;92.05;28.67;;;;;;;2.22;100.00;101511.44;5001106;28;20398;-74
2021/12/06 06:26:27;;;;;;;105.57;29.40;;;;;;;2.24;100.00;101509.69;5018868;28;20398;-73
2021/12/06 06:28:53;;;;;;;91.70;29.42;;;;;;;2.27;100.00;101501.00;5018670;28;20041;-72
2021/12/06 06:31:18;;;;;;;94.43;28.92;;;;;;;2.28;100.00;101519.28;5013541;28;20525;-74
2021/12/06 06:33:44;;;;;;;124.30;29.42;;;;;;;2.30;100.00;101519.28;4998881;28;20434;-73
2021/12/06 06:36:11;;;;;;;93.50;30.48;;;;;;;2.32;100.00;101524.53;4999339;28;20022;-73
2021/12/06 06:38:36;;;;;;;116.93;27.65;;;;;;;2.31;100.00;101531.47;5004368;28;20041;-72
2021/12/06 06:41:02;;;;;;;95.78;30.05;;;;;;;2.29;100.00;101530.63;5018807;28;20022;-73
2021/12/06 06:43:27;;;;;;;87.10;28.42;;;;;;;2.32;100.00;101528.00;5016084;28;20033;-74
2021/12/06 06:45:53;;;;;;;100.03;28.55;;;;;;;2.34;100.00;101530.59;5018754;28;20038;-72
2021/12/06 06:48:18;;;;;;;118.38;30.40;;;;;;;2.30;100.00;101527.13;5018598;28;20025;-73
2021/12/06 06:50:43;;;;;;;116.50;28.98;;;;;;;2.31;100.00;101538.47;5017927;28;20040;-73
2021/12/06 06:53:09;;;;;;;95.32;29.35;;;;;;;2.32;100.00;101542.81;5015443;28;20109;-73
2021/12/06 06:55:35;;;;;;;111.60;28.98;;;;;;;2.33;100.00;101536.69;5018760;28;20018;-73
2021/12/06 06:58:00;;;;;;;95.35;29.77;;;;;;;2.36;100.00;101542.81;5014311;28;20428;-73
2021/12/06 07:00:36;;;;;;;108.78;30.27;;;;;;;2.40;100.00;101539.31;5018782;28;20469;-74
2021/12/06 07:03:04;;;;;;;120.47;30.60;;;;;;;2.35;100.00;101538.44;5012025;28;20482;-73
2021/12/06 07:05:29;;;;;;;132.68;29.40;;;;;;;2.32;100.00;101535.84;5018252;28;20030;-73
2021/12/06 07:07:56;;;;;;;87.55;28.38;;;;;;;2.31;100.00;101536.69;5018682;28;20048;-73
2021/12/06 07:10:23;;;;;;;87.22;28.20;;;;;;;2.34;100.00;101525.38;5012599;28;20034;-70
2021/12/06 07:12:51;;;;;;;93.78;28.33;;;;;;;2.31;100.00;101522.78;5015437;28;20025;-72
2021/12/06 07:15:20;;;;;;;89.53;28.25;;;;;;;2.34;100.00;101513.19;5007376;28;20479;-76
2021/12/06 07:17:46;;;;;;;89.85;29.10;;;;;;;2.36;100.00;101513.19;5015268;28;20037;-72
2021/12/06 07:20:13;;;;;;;105.78;27.77;;;;;;;2.43;100.00;101513.19;5010985;28;20449;-73
2021/12/06 07:22:39;;;;;;;95.03;29.55;;;;;;;2.43;100.00;101507.06;5002197;28;20060;-73
2021/12/06 07:25:06;;;;;;;96.20;28.83;;;;;;;2.41;100.00;101499.25;5009996;28;20061;-73
2021/12/06 07:27:32;;;;;;;101.15;31.17;;;;;;;2.40;100.00;101497.50;5015338;28;20331;-73
2021/12/06 07:29:57;;;;;;;106.65;31.67;;;;;;;2.43;100.00;101497.50;5007230;28;20033;-73
2021/12/06 07:32:23;;;;;;;84.90;29.75;;;;;;;2.44;100.00;101498.38;5005349;28;20042;-73
2021/12/06 07:34:50;;;;;;;94.13;30.60;;;;;;;2.44;100.00;101493.13;4998632;28;20054;-73
2021/12/06 07:37:15;;;;;;;93.43;29.75;;;;;;;2.48;100.00;101499.25;4994152;28;20502;-74
2021/12/06 07:39:40;;;;;;;94.90;29.45;;;;;;;2.48;100.00;101501.84;4987264;28;20035;-73
2021/12/06 07:42:06;;;;;;;115.07;31.40;;;;;;;2.44;100.00;101507.09;4990712;28;20030;-71
2021/12/06 07:44:33;;;;;;;95.25;30.73;;;;;;;2.44;100.00;101501.88;4994341;28;20443;-69
2021/12/06 07:46:59;;;;;;;99.40;30.58;;;;;;;2.45;100.00;101513.19;4995138;28;20026;-72
2021/12/06 07:49:24;;;;;;;100.05;31.30;;;;;;;2.46;100.00;101504.47;4995210;28;20033;-70
2021/12/06 07:51:50;;;;;;;95.05;29.73;;;;;;;2.44;100.00;101509.72;4994727;28;20439;-74
2021/12/06 07:54:16;;;;;;;94.82;30.70;;;;;;;2.46;100.00;101513.19;4994664;28;20030;-74
2021/12/06 07:56:42;;;;;;;87.07;29.35;;;;;;;2.44;100.00;101509.72;4995446;28;20137;-73
2021/12/06 07:59:08;;;;;;;95.38;30.15;;;;;;;2.42;100.00;101505.34;4995142;28;20022;-72
2021/12/06 08:01:33;;;;;;;89.43;29.75;;;;;;;2.41;100.00;101506.22;4994376;28;20133;-73
2021/12/06 08:04:00;;;;;;;94.43;30.48;;;;;;;2.41;100.00;101506.22;4994276;28;20037;-73
2021/12/06 08:06:26;;;;;;;111.03;32.65;;;;;;;2.37;100.00;101507.09;4994693;28;20032;-71
2021/12/06 08:08:53;;;;;;;106.20;30.92;;;;;;;2.39;100.00;101521.03;4994776;28;20022;-73
2021/12/06 08:11:21;;;;;;;90.93;29.33;;;;;;;2.43;100.00;101518.41;4994867;28;20027;-72
2021/12/06 08:13:50;;;;;;;91.05;29.00;;;;;;;2.45;100.00;101524.50;4994044;28;20536;-72
2021/12/06 08:16:21;;;;;;;96.43;30.13;;;;;;;2.43;100.00;101531.50;4993008;28;20045;-73
2021/12/06 08:18:47;;;;;;;87.82;28.58;;;;;;;2.42;100.00;101540.19;4979532;28;20104;-73
2021/12/06 08:21:15;;;;;;;107.13;30.63;;;;;;;2.42;100.00;101540.19;4991894;28;20489;-74
2021/12/06 08:23:41;;;;;;;85.63;28.83;;;;;;;2.50;100.00;101539.34;4994258;28;20022;-73
2021/12/06 08:26:08;;;;;;;86.28;29.25;;;;;;;2.45;100.00;101549.78;4994652;28;20022;-72
2021/12/06 08:28:35;;;;;;;93.43;29.20;;;;;;;2.40;100.00;101543.69;4993581;28;20042;-72
2021/12/06 08:31:02;;;;;;;91.78;29.00;;;;;;;2.41;100.00;101546.28;4988810;28;20479;-73
2021/12/06 08:33:28;;;;;;;84.03;28.50;;;;;;;2.39;100.00;101547.16;4984310;28;20053;-74
2021/12/06 08:35:54;;;;;;;90.38;27.52;;;;;;;2.41;100.00;101540.19;4984137;28;20766;-74
2021/12/06 08:38:22;;;;;;;91.93;29.77;;;;;;;2.43;100.00;101538.44;4987927;28;20043;-75
2021/12/06 08:40:49;;;;;;;99.57;31.10;;;;;;;2.45;100.00;101531.47;4994764;28;20038;-73
2021/12/06 08:43:17;;;;;;;94.88;30.50;;;;;;;2.51;100.00;101526.25;4994404;28;20022;-72
2021/12/06 08:46:04;;;;;;;102.50;31.00;;;;;;;2.51;100.00;101526.25;5003098;28;20022;-73
2021/12/06 08:48:36;;;;;;;94.97;29.33;;;;;;;2.55;100.00;101538.44;4994183;28;20493;-69
2021/12/06 08:51:17;;;;;;;91.82;29.88;;;;;;;2.65;100.00;101539.31;5002927;28;20432;-69
2021/12/06 08:53:43;;;;;;;98.30;30.63;;;;;;;2.62;100.00;101528.84;5004764;28;20048;-72
2021/12/06 08:56:09;;;;;;;85.13;29.02;;;;;;;2.64;100.00;101524.50;5015894;28;20036;-72
2021/12/06 08:58:35;;;;;;;91.45;29.80;;;;;;;2.64;100.00;101523.66;5013314;28;20120;-72
2021/12/06 09:01:02;;;;;;;96.65;31.30;;;;;;;2.68;100.00;101513.16;5018529;28;20030;-72
2021/12/06 09:03:28;;;;;;;84.05;29.23;;;;;;;2.72;100.00;101512.28;5013756;28;20033;-72
2021/12/06 09:05:55;;;;;;;85.35;29.98;;;;;;;2.74;100.00;101507.94;5012646;28;20038;-70
2021/12/06 09:08:23;;;;;;;95.93;31.73;;;;;;;2.77;100.00;101513.13;5011803;28;20482;-71
2021/12/06 09:10:50;;;;;;;87.32;31.13;;;;;;;2.83;100.00;101511.41;4998484;28;20054;-73
2021/12/06 09:13:21;;;;;;;95.18;31.70;;;;;;;2.85;100.00;101504.41;4995583;28;20493;-72
2021/12/06 09:15:47;;;;;;;86.28;30.48;;;;;;;2.88;100.00;101501.81;5004226;28;20120;-73
2021/12/06 09:18:13;;;;;;;91.00;32.55;;;;;;;2.88;100.00;101491.34;5011531;28;20092;-72
2021/12/06 09:20:42;;;;;;;87.82;31.80;;;;;;;2.95;100.00;101499.19;5012591;28;20026;-74
2021/12/06 09:23:09;;;;;;;89.13;31.25;;;;;;;3.00;100.00;101496.53;5012547;28;20552;-75
2021/12/06 09:25:35;;;;;;;82.40;29.15;;;;;;;3.02;100.00;101499.13;5013426;28;20032;-75
2021/12/06 09:28:02;;;;;;;83.15;30.42;;;;;;;3.01;100.00;101502.66;5005966;28;20049;-78
2021/12/06 09:30:29;;;;;;;82.80;30.25;;;;;;;2.99;100.00;101513.09;5000162;28;20022;-71
2021/12/06 09:32:57;;;;;;;83.13;30.10;;;;;;;3.01;100.00;101527.06;5002060;28;20049;-70
2021/12/06 09:35:26;;;;;;;90.15;30.67;;;;;;;3.03;100.00;101522.69;5010997;28;20053;-74
2021/12/06 09:37:52;;;;;;;88.65;31.25;;;;;;;3.03;100.00;101525.31;5001140;28;20042;-70
2021/12/06 09:40:18;;;;;;;81.38;29.83;;;;;;;2.99;100.00;101531.41;5003134;28;20080;-72
2021/12/06 09:42:46;;;;;;;77.38;27.27;;;;;;;3.03;100.00;101524.44;5012020;28;20512;-73
2021/12/06 09:45:18;;;;;;;76.45;27.40;;;;;;;3.06;100.00;101521.81;5011791;28;20053;-71
2021/12/06 09:47:50;;;;;;;65.03;24.38;;;;;;;3.06;100.00;101509.59;5014760;28;20033;-72
2021/12/06 09:50:21;;;;;;;68.18;26.15;;;;;;;3.06;100.00;101517.44;5009572;28;20056;-73
2021/12/06 09:52:47;;;;;;;66.63;26.85;;;;;;;3.15;100.00;101515.69;5009960;28;20030;-72
2021/12/06 09:55:12;;;;;;;66.90;25.55;;;;;;;3.12;100.00;101527.03;5011474;28;20072;-72
2021/12/06 09:57:38;;;;;;;61.78;25.08;;;;;;;3.16;100.00;101525.25;5012822;28;20034;-73
2021/12/06 10:00:08;;;;;;;65.28;26.17;;;;;;;3.21;100.00;101521.78;5012421;28;20022;-75
2021/12/06 10:02:34;;;;;;;72.80;25.40;;;;;;;3.23;100.00;101514.78;5005954;28;20031;-71
2021/12/06 10:04:59;;;;;;;64.90;24.65;;;;;;;3.25;100.00;101512.16;5010506;28;20049;-72
2021/12/06 10:07:26;;;;;;;70.55;26.98;;;;;;;3.29;100.00;101511.28;5011993;28;20026;-69
2021/12/06 10:09:53;;;;;;;72.65;27.33;;;;;;;3.32;100.00;101511.25;5013239;28;20026;-69
2021/12/06 10:12:20;;;;;;;71.03;27.60;;;;;;;3.35;100.00;101506.03;5012577;28;20026;-71
2021/12/06 10:14:47;;;;;;;61.58;23.70;;;;;;;3.34;100.00;101490.28;5006885;28;20023;-71
2021/12/06 10:17:15;;;;;;;64.63;25.02;;;;;;;3.39;100.00;101485.91;5002228;28;20030;-72
2021/12/06 10:19:41;;;;;;;66.78;25.50;;;;;;;3.51;100.00;101485.00;5006996;28;20034;-71
2021/12/06 10:22:07;;;;;;;61.92;23.67;;;;;;;3.58;99.66;101478.84;5008306;28;20032;-73
2021/12/06 10:24:33;;;;;;;61.42;23.17;;;;;;;3.67;98.91;101468.31;5009908;28;20026;-74
2021/12/06 10:27:06;;;;;;;61.65;23.02;;;;;;;3.86;97.72;101453.38;5005178;28;20110;-73
2021/12/06 10:29:44;;;;;;;56.97;22.77;;;;;;;3.86;95.99;101452.47;5011961;28;20041;-73
2021/12/06 10:32:22;;;;;;;51.63;21.25;;;;;;;3.80;94.17;101431.56;5011971;28;20450;-74
2021/12/06 10:35:12;;;;;;;48.00;19.38;;;;;;;3.75;93.21;101434.22;5005069;28;20041;-72
2021/12/06 10:37:45;;;;;;;51.83;20.50;;;;;;;3.61;93.55;101426.47;5011203;28;20115;-74
2021/12/06 10:40:16;;;;;;;54.33;21.65;;;;;;;3.64;94.71;101436.03;5007225;28;20049;-75
2021/12/06 10:42:45;;;;;;;56.72;22.92;;;;;;;3.71;94.98;101425.50;5011776;28;20026;-74
2021/12/06 10:45:24;;;;;;;60.90;23.73;;;;;;;3.69;94.80;101423.78;5013300;28;20034;-72
2021/12/06 10:48:07;;;;;;;52.22;20.75;;;;;;;3.54;94.07;101414.28;5015736;28;20030;-74
2021/12/06 10:50:35;;;;;;;49.17;19.13;;;;;;;3.34;94.01;101415.28;5010396;28;20037;-73
2021/12/06 10:53:03;;;;;;;60.10;22.40;;;;;;;3.28;95.45;101410.91;5015450;28;20018;-72
2021/12/06 10:55:31;;;;;;;56.17;20.10;;;;;;;3.37;96.35;101404.75;5016287;28;20033;-71
2021/12/06 10:57:59;;;;;;;48.90;19.20;;;;;;;3.66;94.71;101390.63;5015534;28;20032;-71
2021/12/06 11:00:39;;;;;;;50.13;18.83;;;;;;;3.60;92.62;101386.28;5014512;28;20038;-69
2021/12/06 11:03:18;;;;;;;47.17;19.00;;;;;;;3.49;92.81;101390.75;5009061;28;20051;-72
2021/12/06 11:05:44;;;;;;;50.22;20.00;;;;;;;3.58;93.65;101384.56;5014532;28;20022;-73
2021/12/06 11:08:16;;;;;;;50.45;20.17;;;;;;;3.78;92.43;101384.41;5014190;28;20084;-69
2021/12/06 11:10:46;;;;;;;48.15;20.20;;;;;;;3.68;91.00;101380.97;5012758;28;20374;-73
2021/12/06 11:13:14;;;;;;;52.83;20.17;;;;;;;3.43;92.53;101377.69;5009758;28;20018;-70
2021/12/06 11:15:59;;;;;;;47.15;20.05;;;;;;;3.41;93.36;101374.19;5013840;28;20053;-69
2021/12/06 11:18:34;;;;;;;54.30;21.38;;;;;;;3.40;92.74;101362.00;5015481;28;20500;-70
2021/12/06 11:21:00;;;;;;;56.28;23.00;;;;;;;3.32;93.29;101358.56;5015026;28;20026;-70
2021/12/06 11:23:25;;;;;;;55.92;23.35;;;;;;;3.35;92.85;101342.81;5015072;28;20038;-71